Terminal Aerodrome Forecast
Issued by NWS Newport/Morehead City, NC

Home | Current Version | Previous Version | Text Only | Print | Product List | Glossary Off
Versions: 1 2 3 4 5 6 7 8 9 10 11 12 13 14 15 16 17 18 19 20 21 22

000
FTUS42 KMHX 140531
TAFEWN
TAF
KEWN 140531Z 1406/1506 00000KT 4SM BR SCT003 BKN025
     FM140700 00000KT 2SM BR BKN003
     FM141300 00000KT 5SM BR BKN007
     FM141500 VRB03KT P6SM BKN025
     FM141800 17005KT P6SM -SHRA VCTS BKN035CB
     FM150000 00000KT P6SM BKN035=

USA.gov is the U.S. government's official web portal to all federal, state and local government web resources and services.